Time;durP1;ratioP1;P1;durP2;ratioP2;P2;SDS_P1;SDS_P2;PMS_P1;PMS_P2;Temp;Humidity;BMP_temperature;BMP_pressure;BME280_temperature;BME280_humidity;BME280_pressure;Samples;Min_cycle;Max_cycle;Signal;HPM_P1;HPM_P2
2023/09/04 00:01:39;;;;;;;2.60;0.98;;;21.60;56.50;;;;;;5055707;28;20352;-65
2023/09/04 00:04:11;;;;;;;2.67;1.13;;;22.20;54.60;;;;;;5054858;28;20392;-65
2023/09/04 00:06:38;;;;;;;2.72;1.30;;;22.80;53.30;;;;;;5054618;28;20400;-64
2023/09/04 00:09:17;;;;;;;4.82;1.20;;;22.50;52.10;;;;;;5053701;28;20378;-61
2023/09/04 00:11:45;;;;;;;4.13;0.95;;;22.30;53.50;;;;;;5054658;28;20025;-61
2023/09/04 00:14:14;;;;;;;4.10;1.10;;;22.60;51.70;;;;;;5054483;28;20035;-60
2023/09/04 00:16:42;;;;;;;2.20;0.88;;;22.70;52.10;;;;;;5053828;28;20108;-60
2023/09/04 00:19:10;;;;;;;2.63;0.90;;;21.80;52.70;;;;;;5053669;28;20021;-61
2023/09/04 00:21:38;;;;;;;2.33;0.93;;;21.50;54.30;;;;;;5053595;28;20055;-61
2023/09/04 00:24:06;;;;;;;2.97;1.02;;;21.70;54.80;;;;;;5053916;28;20029;-62
2023/09/04 00:26:33;;;;;;;5.07;1.08;;;22.00;53.90;;;;;;5053895;28;20029;-62
2023/09/04 00:29:01;;;;;;;4.18;1.10;;;22.00;53.80;;;;;;5053798;28;20028;-61
2023/09/04 00:31:28;;;;;;;2.40;1.00;;;22.00;53.80;;;;;;5053794;28;20118;-61
2023/09/04 00:33:56;;;;;;;3.58;1.00;;;22.30;52.50;;;;;;5053631;28;20025;-61
2023/09/04 00:36:38;;;;;;;2.47;1.30;;;22.10;52.80;;;;;;5054865;28;20025;-62
2023/09/04 00:39:06;;;;;;;1.15;0.77;;;22.30;53.60;;;;;;5053638;28;20021;-60
2023/09/04 00:41:34;;;;;;;3.65;1.13;;;22.50;52.10;;;;;;5055461;28;20423;-60
2023/09/04 00:44:01;;;;;;;3.28;1.10;;;22.80;51.70;;;;;;5057549;28;20032;-60
2023/09/04 00:46:29;;;;;;;4.22;1.08;;;22.60;52.10;;;;;;5058510;28;20329;-61
2023/09/04 00:48:57;;;;;;;4.55;1.00;;;22.50;52.70;;;;;;5057307;28;20047;-60
2023/09/04 00:51:24;;;;;;;3.67;1.10;;;22.10;52.20;;;;;;5057384;28;20519;-61
2023/09/04 00:53:52;;;;;;;1.65;0.80;;;22.20;52.50;;;;;;5057473;28;20060;-60
2023/09/04 00:56:20;;;;;;;2.38;0.95;;;21.80;54.60;;;;;;5058739;28;20091;-61
2023/09/04 00:58:48;;;;;;;2.85;1.20;;;22.80;52.80;;;;;;5057563;28;20021;-62
2023/09/04 01:01:15;;;;;;;2.60;0.90;;;22.90;51.30;;;;;;5057206;28;20055;-61
2023/09/04 01:03:43;;;;;;;3.90;1.10;;;23.30;51.20;;;;;;5057274;28;20443;-60
2023/09/04 01:06:11;;;;;;;3.53;1.17;;;23.50;51.50;;;;;;5056751;28;20043;-61
2023/09/04 01:08:39;;;;;;;1.52;0.80;;;24.40;49.30;;;;;;5057922;28;20021;-61
2023/09/04 01:11:06;;;;;;;5.07;0.77;;;24.00;49.10;;;;;;5056621;28;20029;-61
2023/09/04 01:13:51;;;;;;;2.20;1.08;;;23.60;50.20;;;;;;5057835;28;20079;-61
2023/09/04 01:16:20;;;;;;;4.05;0.93;;;23.70;51.70;;;;;;5056909;28;20359;-61
2023/09/04 01:18:48;;;;;;;5.32;1.27;;;24.30;49.10;;;;;;5056780;28;20021;-61
2023/09/04 01:21:16;;;;;;;2.65;1.67;;;24.50;49.20;;;;;;5056865;28;20028;-65
2023/09/04 01:23:43;;;;;;;3.60;1.10;;;24.10;49.60;;;;;;5056927;28;20025;-65
2023/09/04 01:26:15;;;;;;;2.85;1.00;;;24.50;48.80;;;;;;5056852;28;20043;-64
2023/09/04 01:29:16;;;;;;;3.20;1.00;;;24.20;49.90;;;;;;5056946;28;20021;-65
2023/09/04 01:32:13;;;;;;;3.38;0.93;;;24.00;49.90;;;;;;5042989;28;20367;-64
2023/09/04 01:34:48;;;;;;;2.92;1.00;;;23.70;49.80;;;;;;5057794;28;20043;-64
2023/09/04 01:37:17;;;;;;;3.97;1.30;;;24.50;48.80;;;;;;5040472;28;20034;-65
2023/09/04 01:39:48;;;;;;;3.17;1.17;;;24.80;47.80;;;;;;5056636;28;20025;-65
2023/09/04 01:42:16;;;;;;;2.83;1.00;;;24.30;48.00;;;;;;5056441;28;20048;-64
2023/09/04 01:44:44;;;;;;;4.38;1.20;;;23.70;50.60;;;;;;5056430;28;20021;-65
2023/09/04 01:47:11;;;;;;;4.93;0.90;;;24.30;51.30;;;;;;5057306;28;20032;-66
2023/09/04 01:49:38;;;;;;;3.08;1.02;;;24.50;49.10;;;;;;5057214;28;20074;-65
2023/09/04 01:52:06;;;;;;;3.03;1.08;;;23.90;50.40;;;;;;5056591;28;20048;-65
2023/09/04 01:54:33;;;;;;;2.97;1.05;;;24.30;48.10;;;;;;5055871;28;20055;-64
2023/09/04 01:57:01;;;;;;;2.40;0.98;;;24.50;48.40;;;;;;5056211;28;20025;-65
2023/09/04 01:59:28;;;;;;;8.52;1.40;;;24.20;48.90;;;;;;5056556;28;20020;-65
2023/09/04 02:01:55;;;;;;;2.95;0.98;;;24.20;49.60;;;;;;5056358;28;20020;-68
2023/09/04 02:04:23;;;;;;;2.38;0.93;;;24.50;49.20;;;;;;5056818;28;20068;-69
2023/09/04 02:06:50;;;;;;;2.78;0.82;;;24.20;49.60;;;;;;5056253;28;20451;-69
2023/09/04 02:09:18;;;;;;;4.53;1.45;;;24.00;49.90;;;;;;5056127;28;20033;-70
2023/09/04 02:11:45;;;;;;;4.90;1.13;;;23.80;49.90;;;;;;5055965;28;20033;-62
2023/09/04 02:14:13;;;;;;;4.88;1.30;;;24.60;49.10;;;;;;5055887;28;20020;-60
2023/09/04 02:16:40;;;;;;;2.75;1.10;;;25.00;50.70;;;;;;5056173;28;20029;-61
2023/09/04 02:19:09;;;;;;;3.30;0.98;;;24.60;48.40;;;;;;5055723;28;20025;-61
2023/09/04 02:21:36;;;;;;;2.65;1.10;;;24.40;48.90;;;;;;5055810;28;20083;-62
2023/09/04 02:24:04;;;;;;;3.05;0.90;;;24.30;50.30;;;;;;5055841;28;20029;-62
2023/09/04 02:26:31;;;;;;;2.85;0.98;;;24.40;49.40;;;;;;5055530;28;20044;-69
2023/09/04 02:28:59;;;;;;;4.88;1.05;;;24.60;49.30;;;;;;5055713;28;20351;-68
2023/09/04 02:31:26;;;;;;;3.33;1.02;;;25.20;48.30;;;;;;5056643;28;20025;-69
2023/09/04 02:33:54;;;;;;;2.25;0.90;;;25.10;48.90;;;;;;5056574;28;20425;-69
2023/09/04 02:36:23;;;;;;;3.63;0.98;;;25.30;49.00;;;;;;5055659;28;20514;-70
2023/09/04 02:38:50;;;;;;;5.70;1.40;;;24.50;49.80;;;;;;5056396;28;20387;-69
2023/09/04 02:41:18;;;;;;;4.78;1.23;;;24.90;48.90;;;;;;5055172;28;20112;-69
2023/09/04 02:43:45;;;;;;;5.55;1.38;;;24.80;50.40;;;;;;5055376;28;20037;-70
2023/09/04 02:46:13;;;;;;;3.15;1.10;;;24.80;50.40;;;;;;5055024;28;20021;-69
2023/09/04 02:48:40;;;;;;;4.18;1.10;;;24.50;49.80;;;;;;5055225;28;20478;-70
2023/09/04 02:51:08;;;;;;;2.50;1.10;;;24.00;51.60;;;;;;5054836;28;20053;-69
2023/09/04 02:53:35;;;;;;;6.40;1.67;;;23.90;53.00;;;;;;5055222;28;20074;-70
2023/09/04 02:56:03;;;;;;;3.75;1.10;;;24.10;51.40;;;;;;5054944;28;20032;-69
2023/09/04 02:58:30;;;;;;;4.88;1.35;;;25.00;49.00;;;;;;5054917;28;20126;-69
2023/09/04 03:00:58;;;;;;;5.55;1.10;;;24.70;51.10;;;;;;5055069;28;20335;-69
2023/09/04 03:03:26;;;;;;;4.05;1.20;;;24.20;50.80;;;;;;5054916;28;20036;-69
2023/09/04 03:05:53;;;;;;;3.58;1.20;;;24.90;49.60;;;;;;5054936;28;20028;-69
2023/09/04 03:08:21;;;;;;;5.50;1.20;;;24.70;48.70;;;;;;5055063;28;20033;-70
2023/09/04 03:10:51;;;;;;;4.38;1.00;;;24.80;49.30;;;;;;5054461;28;20025;-69
2023/09/04 03:13:18;;;;;;;2.55;1.17;;;25.60;46.90;;;;;;5054372;28;20043;-69
2023/09/04 03:15:47;;;;;;;4.88;1.10;;;25.60;48.20;;;;;;5055404;28;20032;-68
2023/09/04 03:18:15;;;;;;;7.00;1.40;;;24.80;49.80;;;;;;5054878;28;20024;-68
2023/09/04 03:20:42;;;;;;;4.03;1.20;;;24.90;49.90;;;;;;5055882;28;20448;-70
2023/09/04 03:23:10;;;;;;;7.68;1.42;;;25.60;49.80;;;;;;5054854;28;20029;-69
2023/09/04 03:25:40;;;;;;;2.58;1.10;;;25.60;48.60;;;;;;5054800;28;20052;-69
2023/09/04 03:28:07;;;;;;;6.55;1.33;;;25.20;49.00;;;;;;5054544;28;20119;-69
2023/09/04 03:30:35;;;;;;;4.50;1.60;;;25.10;51.00;;;;;;5054518;28;20442;-69
2023/09/04 03:33:03;;;;;;;3.97;1.33;;;25.10;51.60;;;;;;5054385;28;20032;-70
2023/09/04 03:35:30;;;;;;;3.90;1.40;;;25.20;51.10;;;;;;5054379;28;20485;-70
2023/09/04 03:37:58;;;;;;;3.95;1.30;;;25.10;51.10;;;;;;5054473;28;20106;-69
2023/09/04 03:40:29;;;;;;;4.78;1.30;;;24.80;51.20;;;;;;5054553;28;20082;-70
2023/09/04 03:42:57;;;;;;;3.73;1.40;;;24.60;51.60;;;;;;5054368;28;20474;-70
2023/09/04 03:45:25;;;;;;;5.95;1.48;;;24.10;51.80;;;;;;5053843;28;20025;-69
2023/09/04 03:47:52;;;;;;;3.15;1.40;;;24.70;52.50;;;;;;5054233;28;20025;-69
2023/09/04 03:50:21;;;;;;;4.25;1.52;;;24.40;53.90;;;;;;5054656;28;20052;-69
2023/09/04 03:52:49;;;;;;;5.20;1.30;;;24.70;53.00;;;;;;5054914;28;20032;-69
2023/09/04 03:55:16;;;;;;;7.03;1.80;;;24.70;51.70;;;;;;5054023;28;20070;-69
2023/09/04 03:57:51;;;;;;;6.22;1.95;;;24.60;52.60;;;;;;5055191;28;20013;-69
2023/09/04 04:00:20;;;;;;;3.80;1.45;;;24.50;52.50;;;;;;5053878;28;20032;-69
2023/09/04 04:02:49;;;;;;;2.38;1.40;;;24.00;53.80;;;;;;5053876;28;20415;-69
2023/09/04 04:05:19;;;;;;;5.22;1.63;;;24.10;55.90;;;;;;5054020;28;20060;-69
2023/09/04 04:07:46;;;;;;;2.28;1.20;;;24.40;54.10;;;;;;5053845;28;20029;-68
2023/09/04 04:10:14;;;;;;;5.40;1.30;;;24.50;53.30;;;;;;5054383;28;20150;-69
2023/09/04 04:12:42;;;;;;;4.32;1.70;;;24.70;51.90;;;;;;5054013;28;20459;-69
2023/09/04 04:15:11;;;;;;;5.50;1.40;;;24.60;52.70;;;;;;5054755;28;20024;-69
2023/09/04 04:17:40;;;;;;;7.82;1.52;;;24.20;53.70;;;;;;5053589;28;20421;-69
2023/09/04 04:20:11;;;;;;;4.82;1.58;;;23.90;54.10;;;;;;5053952;28;20058;-69
2023/09/04 04:22:43;;;;;;;7.18;1.70;;;23.60;55.10;;;;;;5054950;28;20077;-69
2023/09/04 04:25:11;;;;;;;5.97;1.58;;;23.10;56.10;;;;;;5054760;28;20465;-70
2023/09/04 04:27:39;;;;;;;5.03;1.55;;;23.30;56.60;;;;;;5054219;28;20110;-70
2023/09/04 04:30:08;;;;;;;4.97;2.05;;;23.20;56.30;;;;;;5054349;28;20021;-70
2023/09/04 04:32:36;;;;;;;6.03;1.90;;;23.60;55.10;;;;;;5053659;28;20029;-70
2023/09/04 04:35:04;;;;;;;9.00;2.22;;;23.80;54.90;;;;;;5053743;28;20463;-70
2023/09/04 04:37:32;;;;;;;4.32;1.42;;;23.70;55.30;;;;;;5053675;28;20115;-70
2023/09/04 04:40:03;;;;;;;3.58;1.50;;;23.40;56.40;;;;;;5054726;28;20094;-71
2023/09/04 04:42:31;;;;;;;5.35;1.52;;;23.10;56.90;;;;;;5053784;28;20021;-69
2023/09/04 04:44:58;;;;;;;3.47;1.38;;;23.00;56.90;;;;;;5053665;28;20028;-69
2023/09/04 04:47:26;;;;;;;4.30;2.03;;;22.60;57.60;;;;;;5054604;28;20316;-69
2023/09/04 04:49:53;;;;;;;3.90;1.50;;;22.60;57.60;;;;;;5053552;28;20021;-69
2023/09/04 04:52:20;;;;;;;6.47;1.70;;;22.50;58.20;;;;;;5054422;28;20052;-70
2023/09/04 04:54:48;;;;;;;3.97;1.58;;;22.80;57.50;;;;;;5053785;28;20025;-69
2023/09/04 04:57:16;;;;;;;3.58;1.40;;;23.40;56.10;;;;;;5054518;28;20045;-61
2023/09/04 04:59:43;;;;;;;4.32;1.70;;;23.10;56.10;;;;;;5053223;28;20025;-69
2023/09/04 05:02:10;;;;;;;5.38;1.58;;;22.90;56.60;;;;;;5054104;28;20112;-68
2023/09/04 05:04:44;;;;;;;4.05;1.52;;;23.20;56.40;;;;;;5054178;28;20075;-69
2023/09/04 05:07:12;;;;;;;3.83;1.77;;;22.80;56.20;;;;;;5053430;28;20032;-61
2023/09/04 05:09:39;;;;;;;4.95;1.65;;;22.60;58.00;;;;;;5053265;28;20410;-62
2023/09/04 05:12:08;;;;;;;6.40;1.92;;;22.50;58.00;;;;;;5053527;28;20336;-62
2023/09/04 05:14:35;;;;;;;3.92;1.50;;;22.70;58.40;;;;;;5054364;28;20131;-61
2023/09/04 05:17:03;;;;;;;4.18;1.55;;;22.60;58.80;;;;;;5053516;28;20025;-61
2023/09/04 05:19:30;;;;;;;7.60;2.05;;;22.50;58.00;;;;;;5053395;28;20320;-61
2023/09/04 05:21:58;;;;;;;3.95;1.48;;;22.10;58.70;;;;;;5054466;28;20025;-61
2023/09/04 05:24:25;;;;;;;5.80;1.90;;;22.10;59.50;;;;;;5053075;28;20036;-68
2023/09/04 05:26:53;;;;;;;7.05;1.92;;;22.40;59.20;;;;;;5053014;28;20037;-68
2023/09/04 05:29:20;;;;;;;8.77;2.30;;;22.60;58.00;;;;;;5055704;28;20040;-69
2023/09/04 05:31:58;;;;;;;3.65;1.60;;;22.70;58.20;;;;;;5056378;28;20033;-68
2023/09/04 05:34:28;;;;;;;7.32;1.73;;;22.40;59.00;;;;;;5057456;28;20052;-66
2023/09/04 05:36:56;;;;;;;7.80;2.20;;;23.10;57.30;;;;;;5057452;28;20040;-67
2023/09/04 05:39:24;;;;;;;7.55;1.92;;;24.00;55.30;;;;;;5056840;28;20415;-68
2023/09/04 05:41:51;;;;;;;6.35;1.50;;;24.60;53.90;;;;;;5056398;28;20112;-70
2023/09/04 05:44:19;;;;;;;5.28;1.65;;;24.90;52.90;;;;;;5056506;28;20036;-70
2023/09/04 05:46:46;;;;;;;5.97;2.05;;;25.30;52.20;;;;;;5057575;28;20021;-69
2023/09/04 05:49:14;;;;;;;3.78;2.15;;;24.70;53.10;;;;;;5056568;28;20484;-69
2023/09/04 05:51:42;;;;;;;7.50;1.92;;;25.10;52.30;;;;;;5057309;28;20379;-69
2023/09/04 05:54:09;;;;;;;4.95;1.77;;;24.90;52.60;;;;;;5057383;28;20103;-68
2023/09/04 05:56:36;;;;;;;3.95;1.55;;;24.70;53.60;;;;;;5055941;28;20024;-69
2023/09/04 05:59:05;;;;;;;4.43;1.80;;;24.60;53.80;;;;;;5056284;28;20033;-70
2023/09/04 06:01:33;;;;;;;6.18;1.65;;;24.90;53.10;;;;;;5056439;28;20017;-69
2023/09/04 06:04:00;;;;;;;3.85;1.55;;;25.10;52.60;;;;;;5056130;28;20033;-69
2023/09/04 06:06:28;;;;;;;5.93;1.60;;;24.90;53.10;;;;;;5057313;28;20040;-70
2023/09/04 06:08:55;;;;;;;7.15;1.63;;;25.40;52.20;;;;;;5056600;28;20025;-69
2023/09/04 06:11:23;;;;;;;5.50;1.83;;;25.80;51.00;;;;;;5055940;28;20025;-69
2023/09/04 06:13:50;;;;;;;5.78;1.90;;;25.50;52.30;;;;;;5055573;28;20043;-70
2023/09/04 06:16:19;;;;;;;5.72;1.55;;;25.80;51.10;;;;;;5056142;28;20021;-70
2023/09/04 06:18:46;;;;;;;4.57;1.70;;;25.60;51.30;;;;;;5039573;28;20025;-70
2023/09/04 06:21:14;;;;;;;7.30;1.90;;;24.90;53.10;;;;;;5055920;28;20036;-69
2023/09/04 06:23:42;;;;;;;7.00;2.20;;;25.80;51.80;;;;;;5056793;28;20021;-70
2023/09/04 06:26:09;;;;;;;9.55;2.03;;;25.60;51.60;;;;;;5055766;28;20049;-70
2023/09/04 06:28:37;;;;;;;8.68;2.70;;;25.70;51.90;;;;;;5055745;28;20025;-70
2023/09/04 06:31:05;;;;;;;5.07;1.65;;;26.10;51.30;;;;;;5056679;28;20025;-69
2023/09/04 06:33:36;;;;;;;6.80;1.90;;;25.90;51.50;;;;;;5055673;28;20120;-70
2023/09/04 06:36:05;;;;;;;5.22;1.83;;;25.40;53.20;;;;;;5055696;28;20104;-69
2023/09/04 06:38:32;;;;;;;3.55;1.83;;;25.80;52.10;;;;;;5056211;28;20025;-69
2023/09/04 06:41:00;;;;;;;5.88;1.95;;;26.10;51.30;;;;;;5055410;28;20032;-69
2023/09/04 06:43:30;;;;;;;5.47;1.95;;;25.50;52.40;;;;;;5055767;28;20036;-69
2023/09/04 06:46:02;;;;;;;6.38;2.35;;;24.70;54.50;;;;;;5055464;28;20021;-69
2023/09/04 06:48:29;;;;;;;;;;;24.50;54.80;;;;;;5055713;28;20367;-70
2023/09/04 06:50:57;;;;;;;5.53;2.13;;;22.10;60.80;;;;;;5055103;28;19967;-70
2023/09/04 06:53:24;;;;;;;5.38;1.77;;;21.10;64.20;;;;;;5055266;28;20029;-70
2023/09/04 06:55:52;;;;;;;7.30;1.85;;;20.60;66.10;;;;;;5055218;28;20032;-69
2023/09/04 06:58:19;;;;;;;7.97;1.90;;;20.30;67.40;;;;;;5055141;28;20041;-69
2023/09/04 07:00:47;;;;;;;5.15;1.90;;;20.10;68.00;;;;;;5056212;28;20017;-70
2023/09/04 07:03:14;;;;;;;8.23;1.98;;;20.00;68.60;;;;;;5055133;28;20036;-70
2023/09/04 07:05:42;;;;;;;4.85;2.20;;;19.90;69.30;;;;;;5055063;28;20466;-69
2023/09/04 07:08:09;;;;;;;5.43;1.92;;;19.70;69.80;;;;;;5055039;28;20044;-69
2023/09/04 07:10:37;;;;;;;8.73;2.00;;;19.60;70.40;;;;;;5054910;28;20025;-70
2023/09/04 07:13:05;;;;;;;9.80;2.28;;;19.50;71.20;;;;;;5054728;28;20098;-69
2023/09/04 07:15:32;;;;;;;5.85;1.70;;;19.50;71.70;;;;;;5054754;28;20024;-69
2023/09/04 07:18:00;;;;;;;4.57;2.00;;;19.30;72.20;;;;;;5054513;28;20465;-67
2023/09/04 07:20:28;;;;;;;6.05;1.90;;;19.20;72.50;;;;;;5054886;28;20447;-69
2023/09/04 07:22:56;;;;;;;7.18;2.28;;;19.20;72.80;;;;;;5054487;28;20107;-69
2023/09/04 07:25:24;;;;;;;5.07;2.10;;;19.10;73.00;;;;;;5054648;28;20048;-69
2023/09/04 07:27:52;;;;;;;5.80;1.85;;;19.00;73.40;;;;;;5055523;28;20067;-69
2023/09/04 07:30:19;;;;;;;6.28;2.30;;;19.10;73.20;;;;;;5055311;28;20347;-67
2023/09/04 07:32:47;;;;;;;5.20;2.35;;;19.00;73.40;;;;;;5054344;28;20029;-69
2023/09/04 07:35:14;;;;;;;6.07;2.00;;;19.00;73.70;;;;;;5055405;28;20060;-68
2023/09/04 07:37:42;;;;;;;5.35;1.80;;;18.80;73.90;;;;;;5055377;28;20108;-68
2023/09/04 07:40:11;;;;;;;6.72;1.95;;;18.80;74.00;;;;;;5054373;28;20017;-69
2023/09/04 07:42:43;;;;;;;6.82;1.90;;;18.70;74.30;;;;;;5055101;28;20017;-67
2023/09/04 07:45:11;;;;;;;5.90;2.05;;;18.70;74.40;;;;;;5054475;28;20078;-61
2023/09/04 07:47:38;;;;;;;10.52;3.30;;;18.70;74.50;;;;;;5054351;28;20020;-61
2023/09/04 07:50:06;;;;;;;5.22;1.67;;;18.60;74.80;;;;;;5053747;28;20024;-61
2023/09/04 07:52:34;;;;;;;6.35;2.10;;;18.60;74.90;;;;;;5053867;28;20021;-61
2023/09/04 07:55:02;;;;;;;4.82;1.95;;;18.60;75.10;;;;;;5054025;28;20363;-61
2023/09/04 07:57:29;;;;;;;7.20;1.98;;;18.50;75.20;;;;;;5055428;28;20027;-61
2023/09/04 07:59:59;;;;;;;6.43;2.20;;;18.50;75.60;;;;;;5054206;28;20033;-62
2023/09/04 08:02:27;;;;;;;4.97;1.70;;;18.40;75.80;;;;;;5054203;28;20017;-61
2023/09/04 08:04:54;;;;;;;9.20;2.28;;;18.30;76.00;;;;;;5054106;28;20074;-62
2023/09/04 08:07:22;;;;;;;7.63;2.03;;;18.30;76.30;;;;;;5054130;28;20163;-61
2023/09/04 08:11:39;;;;;;;7.90;2.35;;;18.20;76.30;;;;;;5092624;27;20764;-62
2023/09/04 08:14:07;;;;;;;8.10;2.20;;;18.20;76.80;;;;;;5091579;28;20081;-62
2023/09/04 08:16:34;;;;;;;5.72;2.22;;;18.10;76.70;;;;;;5092397;28;20434;-62
2023/09/04 08:19:02;;;;;;;8.18;2.35;;;18.10;76.80;;;;;;5097533;28;20036;-61
2023/09/04 08:21:29;;;;;;;8.20;2.60;;;18.00;76.70;;;;;;5071137;28;20343;-62
2023/09/04 08:23:57;;;;;;;7.85;2.90;;;18.10;77.20;;;;;;5071269;28;20035;-61
2023/09/04 08:26:25;;;;;;;11.02;2.70;;;18.00;77.30;;;;;;5071226;28;20020;-60
2023/09/04 08:28:52;;;;;;;6.40;2.50;;;18.00;77.20;;;;;;5071084;28;20031;-61
2023/09/04 08:31:20;;;;;;;9.82;2.90;;;18.00;77.20;;;;;;5070968;28;20111;-61
2023/09/04 08:33:48;;;;;;;9.55;2.75;;;18.00;77.20;;;;;;5071063;28;20036;-61
2023/09/04 08:36:15;;;;;;;9.45;2.55;;;18.00;77.40;;;;;;5071046;28;20052;-61
2023/09/04 08:38:43;;;;;;;7.72;2.70;;;17.90;77.50;;;;;;5071863;28;20017;-61
2023/09/04 08:41:13;;;;;;;10.40;2.47;;;17.90;77.70;;;;;;5070873;28;20063;-62
2023/09/04 08:43:42;;;;;;;7.43;2.33;;;17.80;78.20;;;;;;5071840;28;20074;-61
2023/09/04 08:46:10;;;;;;;9.07;2.53;;;17.90;78.00;;;;;;5070829;28;20462;-61
2023/09/04 08:48:42;;;;;;;7.50;3.00;;;17.80;78.20;;;;;;5070772;28;20096;-60
2023/09/04 08:51:09;;;;;;;7.60;2.80;;;17.80;78.20;;;;;;5054165;28;20221;-61
2023/09/04 08:53:37;;;;;;;7.82;2.30;;;17.80;78.10;;;;;;5071502;28;20382;-61
2023/09/04 08:56:08;;;;;;;8.30;2.95;;;17.80;78.20;;;;;;5071491;28;20025;-62
2023/09/04 08:58:36;;;;;;;13.35;3.60;;;17.80;78.30;;;;;;5070367;28;20036;-61
2023/09/04 09:01:03;;;;;;;9.20;2.80;;;17.60;79.00;;;;;;5070417;28;20024;-60
2023/09/04 09:03:32;;;;;;;8.93;2.95;;;17.70;78.90;;;;;;5070401;28;20082;-62
2023/09/04 09:06:00;;;;;;;8.00;2.38;;;17.50;79.40;;;;;;5071313;28;20024;-60
2023/09/04 09:08:31;;;;;;;9.73;3.08;;;17.40;79.20;;;;;;5070270;28;20036;-61
2023/09/04 09:11:00;;;;;;;11.23;3.10;;;17.50;78.90;;;;;;5086187;28;20044;-62
2023/09/04 09:13:27;;;;;;;9.98;3.25;;;17.40;78.70;;;;;;5073867;28;20354;-61
2023/09/04 09:15:55;;;;;;;9.48;2.72;;;17.30;79.20;;;;;;5090496;28;20040;-61
2023/09/04 09:18:42;;;;;;;6.70;2.50;;;17.30;79.00;;;;;;5091297;28;20093;-63
2023/09/04 09:21:31;;;;;;;7.55;2.55;;;17.20;79.20;;;;;;5087214;28;20032;-69
2023/09/04 09:24:14;;;;;;;10.00;4.10;;;17.10;79.30;;;;;;5076816;28;20025;-62
2023/09/04 09:26:47;;;;;;;8.55;3.03;;;17.00;80.50;;;;;;5077663;28;20017;-62
2023/09/04 09:29:16;;;;;;;10.77;2.83;;;16.90;80.40;;;;;;5076563;28;20454;-63
2023/09/04 09:31:45;;;;;;;8.80;3.83;;;16.90;80.50;;;;;;5077698;28;20025;-71
2023/09/04 09:34:14;;;;;;;10.68;3.30;;;17.00;80.90;;;;;;5076763;28;20028;-71
2023/09/04 09:36:41;;;;;;;8.93;3.00;;;17.00;81.20;;;;;;5076597;28;20107;-71
2023/09/04 09:39:09;;;;;;;9.02;3.08;;;16.90;81.40;;;;;;5076522;28;20017;-71
2023/09/04 09:41:36;;;;;;;8.88;2.70;;;16.80;81.50;;;;;;5076562;28;20505;-71
2023/09/04 09:44:05;;;;;;;11.38;3.38;;;16.90;81.20;;;;;;5077516;28;20350;-73
2023/09/04 09:46:37;;;;;;;8.27;3.00;;;16.90;81.50;;;;;;5076511;28;20042;-72
2023/09/04 09:49:06;;;;;;;;;;;16.90;81.10;;;;;;5077856;28;20100;-72
2023/09/04 09:51:37;;;;;;;10.98;3.58;;;16.90;80.80;;;;;;5076482;28;19908;-71
2023/09/04 09:54:05;;;;;;;12.63;3.83;;;16.80;81.40;;;;;;5076544;28;20074;-72
2023/09/04 09:56:33;;;;;;;11.00;3.30;;;16.80;81.60;;;;;;5076514;28;20051;-71
2023/09/04 09:59:03;;;;;;;8.00;3.00;;;16.70;82.20;;;;;;5077193;28;20021;-71
2023/09/04 10:01:32;;;;;;;10.93;3.22;;;16.60;81.90;;;;;;5076075;28;20054;-56
2023/09/04 10:04:00;;;;;;;7.53;3.00;;;16.40;82.70;;;;;;5076195;28;20036;-55
2023/09/04 10:06:34;;;;;;;11.38;3.28;;;16.30;83.00;;;;;;5076082;28;20063;-55
2023/09/04 10:09:02;;;;;;;7.80;3.38;;;16.20;82.40;;;;;;5076035;28;20032;-55
2023/09/04 10:11:33;;;;;;;10.18;3.63;;;16.30;81.90;;;;;;5075711;28;20048;-57
2023/09/04 10:14:04;;;;;;;16.48;7.15;;;16.30;82.30;;;;;;5076971;28;20031;-58
2023/09/04 10:16:40;;;;;;;16.42;7.55;;;16.10;82.70;;;;;;5075857;28;20028;-56
2023/09/04 10:19:12;;;;;;;56.40;27.73;;;16.10;82.20;;;;;;5075751;28;20027;-62
2023/09/04 10:21:45;;;;;;;32.97;17.13;;;15.90;83.30;;;;;;5075607;28;20620;-63
2023/09/04 10:24:24;;;;;;;26.55;13.73;;;15.70;83.70;;;;;;5059766;28;20024;-62
2023/09/04 10:27:11;;;;;;;23.10;12.23;;;15.70;84.00;;;;;;5076072;28;20116;-63
2023/09/04 10:29:59;;;;;;;20.77;10.07;;;15.80;83.60;;;;;;5075553;28;20028;-63
2023/09/04 10:32:28;;;;;;;15.88;8.70;;;15.70;83.50;;;;;;5077153;28;20024;-62
2023/09/04 10:34:56;;;;;;;13.20;6.88;;;15.70;83.60;;;;;;5074797;28;20351;-63
2023/09/04 10:37:29;;;;;;;14.55;5.45;;;15.60;84.50;;;;;;5075415;28;20025;-63
2023/09/04 10:39:58;;;;;;;12.65;6.68;;;15.50;84.70;;;;;;5059304;28;20366;-68
2023/09/04 10:42:28;;;;;;;13.98;7.05;;;15.50;84.90;;;;;;5075397;28;20035;-68
2023/09/04 10:44:56;;;;;;;12.25;6.45;;;15.50;84.60;;;;;;5075359;28;20032;-68
2023/09/04 10:47:24;;;;;;;20.63;8.02;;;15.50;85.00;;;;;;5075287;28;20039;-67
2023/09/04 10:49:52;;;;;;;18.30;8.43;;;15.40;85.40;;;;;;5076055;28;20024;-62
2023/09/04 10:52:20;;;;;;;14.70;6.90;;;15.40;84.90;;;;;;5076199;28;20082;-63
2023/09/04 10:54:47;;;;;;;17.15;6.50;;;15.40;84.20;;;;;;5075119;28;20143;-63
2023/09/04 10:57:15;;;;;;;11.57;5.75;;;15.40;83.70;;;;;;5076125;28;20025;-62
2023/09/04 11:00:03;;;;;;;14.57;5.60;;;15.20;84.50;;;;;;5075026;28;20078;-63
2023/09/04 11:02:35;;;;;;;11.68;5.22;;;15.20;84.20;;;;;;5074944;28;20066;-63
2023/09/04 11:05:07;;;;;;;9.15;5.13;;;15.10;84.20;;;;;;5075030;28;20127;-63
2023/09/04 11:07:35;;;;;;;9.82;4.32;;;15.10;84.60;;;;;;5075029;28;20024;-62
2023/09/04 11:10:07;;;;;;;8.35;4.30;;;15.10;84.40;;;;;;5073897;28;20048;-62
2023/09/04 11:12:36;;;;;;;9.77;5.05;;;15.10;84.80;;;;;;5075705;28;20024;-62
2023/09/04 11:15:17;;;;;;;9.48;4.70;;;14.90;85.50;;;;;;5075722;28;20046;-62
2023/09/04 11:17:51;;;;;;;10.05;4.65;;;14.80;85.90;;;;;;5074777;28;20504;-63
2023/09/04 11:20:27;;;;;;;7.82;4.25;;;14.50;86.70;;;;;;5075774;28;20452;-65
2023/09/04 11:22:56;;;;;;;9.38;4.40;;;14.30;87.30;;;;;;5075743;28;20112;-63
2023/09/04 11:25:24;;;;;;;12.65;4.82;;;14.30;87.00;;;;;;5074098;28;20029;-62
2023/09/04 11:27:52;;;;;;;11.13;4.72;;;14.30;87.50;;;;;;5075027;28;20031;-63
2023/09/04 11:30:19;;;;;;;11.68;5.00;;;14.30;87.60;;;;;;5073861;28;20044;-63
2023/09/04 11:32:47;;;;;;;8.07;4.22;;;14.40;87.50;;;;;;5074426;28;20027;-64
2023/09/04 11:35:15;;;;;;;11.98;4.90;;;14.50;86.80;;;;;;5074459;28;20054;-63
2023/09/04 11:37:44;;;;;;;9.60;4.75;;;14.50;86.50;;;;;;5075445;28;20036;-64
2023/09/04 11:40:11;;;;;;;8.23;4.85;;;14.40;86.10;;;;;;5074434;28;20042;-63
2023/09/04 11:42:39;;;;;;;9.80;5.70;;;14.40;86.60;;;;;;5074242;28;20077;-62
2023/09/04 11:45:08;;;;;;;12.13;6.28;;;14.40;86.30;;;;;;5074947;28;20100;-63
2023/09/04 11:47:35;;;;;;;12.15;5.72;;;14.30;87.00;;;;;;5074312;28;20032;-63
2023/09/04 11:50:03;;;;;;;12.50;4.97;;;14.30;86.80;;;;;;5075051;28;20035;-64
2023/09/04 11:52:31;;;;;;;10.32;5.18;;;14.20;86.00;;;;;;5073896;28;20127;-65
2023/09/04 11:54:58;;;;;;;9.43;4.47;;;14.30;86.00;;;;;;5074075;28;20035;-63
2023/09/04 11:57:26;;;;;;;8.95;4.05;;;14.40;85.90;;;;;;5074041;28;20104;-63
2023/09/04 11:59:55;;;;;;;12.85;4.22;;;14.40;85.40;;;;;;5073555;28;20025;-63
2023/09/04 12:02:22;;;;;;;9.02;4.30;;;14.20;86.30;;;;;;5073814;28;20458;-63
2023/09/04 12:04:52;;;;;;;7.70;4.18;;;14.00;87.00;;;;;;5073876;28;20039;-62
2023/09/04 12:07:20;;;;;;;8.63;3.78;;;14.00;87.00;;;;;;5074955;28;20021;-63
2023/09/04 12:09:47;;;;;;;7.05;3.67;;;14.00;86.40;;;;;;5073555;28;20047;-62
2023/09/04 12:12:20;;;;;;;6.50;3.60;;;14.00;87.00;;;;;;5073960;28;20017;-62
2023/09/04 12:14:48;;;;;;;5.63;3.53;;;14.00;87.10;;;;;;5073966;28;20414;-62
2023/09/04 12:17:15;;;;;;;6.45;3.70;;;14.00;86.80;;;;;;5073967;28;20028;-62
2023/09/04 12:19:43;;;;;;;9.40;3.83;;;14.00;86.10;;;;;;5073829;28;20020;-62
2023/09/04 12:22:14;;;;;;;7.13;4.03;;;14.00;85.80;;;;;;5074931;28;20369;-63
2023/09/04 12:25:00;;;;;;;10.63;3.85;;;14.00;86.20;;;;;;5073919;28;20024;-62
2023/09/04 12:27:29;;;;;;;7.95;4.15;;;14.00;86.20;;;;;;5057488;28;20335;-62
2023/09/04 12:29:57;;;;;;;10.45;4.60;;;14.00;86.30;;;;;;5073651;28;20029;-62
2023/09/04 12:32:25;;;;;;;9.52;3.65;;;14.00;86.60;;;;;;5073819;28;20024;-63
2023/09/04 12:35:08;;;;;;;10.75;3.75;;;13.80;86.50;;;;;;5073847;28;20438;-62
2023/09/04 12:37:37;;;;;;;11.00;3.28;;;13.60;86.90;;;;;;5073812;28;20107;-63
2023/09/04 12:40:08;;;;;;;9.60;4.15;;;13.70;86.80;;;;;;5073702;28;20032;-62
2023/09/04 12:42:37;;;;;;;10.43;4.15;;;13.70;86.90;;;;;;5073774;28;20455;-62
2023/09/04 12:45:06;;;;;;;7.07;3.25;;;13.60;87.20;;;;;;5073685;28;20083;-62
2023/09/04 12:47:33;;;;;;;10.40;3.50;;;13.50;87.40;;;;;;5073670;28;20021;-62
2023/09/04 12:50:01;;;;;;;8.85;4.60;;;13.60;86.60;;;;;;5073397;28;20036;-63
2023/09/04 12:52:31;;;;;;;10.23;3.80;;;13.70;86.40;;;;;;5073680;28;20029;-63
2023/09/04 12:54:59;;;;;;;10.27;3.10;;;13.70;86.00;;;;;;5073640;28;20087;-63
2023/09/04 12:57:27;;;;;;;7.82;3.63;;;13.80;85.80;;;;;;5075620;28;20082;-63